sensor_id;sensor_type;location;lat;lon;timestamp;temperature;humidity
4693;DHT22;11710;48.024;16.296;2022-07-10T00:01:30;17.80;99.90
4693;DHT22;11710;48.024;16.296;2022-07-10T00:03:58;17.70;99.90
4693;DHT22;11710;48.024;16.296;2022-07-10T00:06:25;17.80;99.90
4693;DHT22;11710;48.024;16.296;2022-07-10T00:08:52;17.70;99.90
4693;DHT22;11710;48.024;16.296;2022-07-10T00:11:20;17.80;99.90
4693;DHT22;11710;48.024;16.296;2022-07-10T00:13:47;17.80;99.90
4693;DHT22;11710;48.024;16.296;2022-07-10T00:16:14;17.70;99.90
4693;DHT22;11710;48.024;16.296;2022-07-10T00:18:41;17.70;99.90
4693;DHT22;11710;48.024;16.296;2022-07-10T00:21:09;17.60;99.90
4693;DHT22;11710;48.024;16.296;2022-07-10T00:23:36;17.60;99.90
4693;DHT22;11710;48.024;16.296;2022-07-10T00:26:03;17.60;99.90
4693;DHT22;11710;48.024;16.296;2022-07-10T00:28:30;17.50;99.90
4693;DHT22;11710;48.024;16.296;2022-07-10T00:30:57;17.50;99.90
4693;DHT22;11710;48.024;16.296;2022-07-10T00:33:24;17.50;99.90
4693;DHT22;11710;48.024;16.296;2022-07-10T00:35:51;17.50;99.90
4693;DHT22;11710;48.024;16.296;2022-07-10T00:38:19;17.50;99.90
4693;DHT22;11710;48.024;16.296;2022-07-10T00:40:46;17.50;99.90
4693;DHT22;11710;48.024;16.296;2022-07-10T00:43:13;17.40;99.90
4693;DHT22;11710;48.024;16.296;2022-07-10T00:45:40;17.40;99.90
4693;DHT22;11710;48.024;16.296;2022-07-10T00:48:07;17.40;99.90
4693;DHT22;11710;48.024;16.296;2022-07-10T00:50:35;17.40;99.90
4693;DHT22;11710;48.024;16.296;2022-07-10T00:53:02;17.40;99.90
4693;DHT22;11710;48.024;16.296;2022-07-10T00:55:31;17.40;99.90
4693;DHT22;11710;48.024;16.296;2022-07-10T00:57:59;17.30;99.90
4693;DHT22;11710;48.024;16.296;2022-07-10T01:00:26;17.30;99.90
4693;DHT22;11710;48.024;16.296;2022-07-10T01:02:54;17.30;99.90
4693;DHT22;11710;48.024;16.296;2022-07-10T01:05:21;17.30;99.90
4693;DHT22;11710;48.024;16.296;2022-07-10T01:07:48;17.30;99.90
4693;DHT22;11710;48.024;16.296;2022-07-10T01:10:15;17.30;99.90
4693;DHT22;11710;48.024;16.296;2022-07-10T01:12:43;17.30;99.90
4693;DHT22;11710;48.024;16.296;2022-07-10T01:15:11;17.30;99.90
4693;DHT22;11710;48.024;16.296;2022-07-10T01:17:38;17.30;99.90
4693;DHT22;11710;48.024;16.296;2022-07-10T01:20:06;17.30;99.90
4693;DHT22;11710;48.024;16.296;2022-07-10T01:22:36;17.30;99.90
4693;DHT22;11710;48.024;16.296;2022-07-10T01:25:03;17.30;99.90
4693;DHT22;11710;48.024;16.296;2022-07-10T01:27:31;17.30;99.90
4693;DHT22;11710;48.024;16.296;2022-07-10T01:29:58;17.30;99.90
4693;DHT22;11710;48.024;16.296;2022-07-10T01:32:26;17.20;99.90
4693;DHT22;11710;48.024;16.296;2022-07-10T01:34:52;17.20;99.90
4693;DHT22;11710;48.024;16.296;2022-07-10T01:37:19;17.20;99.90
4693;DHT22;11710;48.024;16.296;2022-07-10T01:39:48;17.20;99.90
4693;DHT22;11710;48.024;16.296;2022-07-10T01:42:14;17.20;99.90
4693;DHT22;11710;48.024;16.296;2022-07-10T01:44:41;17.20;99.90
4693;DHT22;11710;48.024;16.296;2022-07-10T01:47:08;17.20;99.90
4693;DHT22;11710;48.024;16.296;2022-07-10T01:49:35;17.20;99.90
4693;DHT22;11710;48.024;16.296;2022-07-10T01:52:04;17.20;99.90
4693;DHT22;11710;48.024;16.296;2022-07-10T01:54:30;17.20;99.90
4693;DHT22;11710;48.024;16.296;2022-07-10T01:56:59;17.20;99.90
4693;DHT22;11710;48.024;16.296;2022-07-10T01:59:26;17.20;99.90
4693;DHT22;11710;48.024;16.296;2022-07-10T02:01:53;17.20;99.90
4693;DHT22;11710;48.024;16.296;2022-07-10T02:04:19;17.20;99.90
4693;DHT22;11710;48.024;16.296;2022-07-10T02:07:03;17.20;99.90
4693;DHT22;11710;48.024;16.296;2022-07-10T02:09:30;17.20;99.90
4693;DHT22;11710;48.024;16.296;2022-07-10T02:11:59;17.20;99.90
4693;DHT22;11710;48.024;16.296;2022-07-10T02:14:25;17.20;99.90
4693;DHT22;11710;48.024;16.296;2022-07-10T02:16:52;17.10;99.90
4693;DHT22;11710;48.024;16.296;2022-07-10T02:19:19;17.10;99.90
4693;DHT22;11710;48.024;16.296;2022-07-10T02:21:46;17.10;99.90
4693;DHT22;11710;48.024;16.296;2022-07-10T02:24:13;17.20;99.90
4693;DHT22;11710;48.024;16.296;2022-07-10T02:26:40;17.20;99.90
4693;DHT22;11710;48.024;16.296;2022-07-10T02:29:08;17.10;99.90
4693;DHT22;11710;48.024;16.296;2022-07-10T02:31:35;17.20;99.90
4693;DHT22;11710;48.024;16.296;2022-07-10T02:34:06;17.20;99.90
4693;DHT22;11710;48.024;16.296;2022-07-10T02:36:33;17.20;99.90
4693;DHT22;11710;48.024;16.296;2022-07-10T02:39:00;17.20;99.90
4693;DHT22;11710;48.024;16.296;2022-07-10T02:41:27;17.20;99.90
4693;DHT22;11710;48.024;16.296;2022-07-10T02:43:54;17.20;99.90
4693;DHT22;11710;48.024;16.296;2022-07-10T02:46:22;17.20;99.90
4693;DHT22;11710;48.024;16.296;2022-07-10T02:48:49;17.20;99.90
4693;DHT22;11710;48.024;16.296;2022-07-10T02:51:16;17.20;99.90
4693;DHT22;11710;48.024;16.296;2022-07-10T02:53:43;17.20;99.90
4693;DHT22;11710;48.024;16.296;2022-07-10T02:56:10;17.10;99.90
4693;DHT22;11710;48.024;16.296;2022-07-10T02:58:38;17.10;99.90
4693;DHT22;11710;48.024;16.296;2022-07-10T03:01:05;17.10;99.90
4693;DHT22;11710;48.024;16.296;2022-07-10T03:03:33;17.10;99.90
4693;DHT22;11710;48.024;16.296;2022-07-10T03:06:00;17.10;99.90
4693;DHT22;11710;48.024;16.296;2022-07-10T03:08:27;17.10;99.90
4693;DHT22;11710;48.024;16.296;2022-07-10T03:10:54;17.10;99.90
4693;DHT22;11710;48.024;16.296;2022-07-10T03:13:21;17.10;99.90
4693;DHT22;11710;48.024;16.296;2022-07-10T03:15:48;17.10;99.90
4693;DHT22;11710;48.024;16.296;2022-07-10T03:18:14;17.10;99.90
4693;DHT22;11710;48.024;16.296;2022-07-10T03:20:43;17.10;99.90
4693;DHT22;11710;48.024;16.296;2022-07-10T03:23:10;17.20;99.90
4693;DHT22;11710;48.024;16.296;2022-07-10T03:25:37;17.20;99.90
4693;DHT22;11710;48.024;16.296;2022-07-10T03:28:04;17.20;99.90
4693;DHT22;11710;48.024;16.296;2022-07-10T03:30:31;17.20;99.90
4693;DHT22;11710;48.024;16.296;2022-07-10T03:32:58;17.20;99.90
4693;DHT22;11710;48.024;16.296;2022-07-10T03:35:25;17.30;99.90
4693;DHT22;11710;48.024;16.296;2022-07-10T03:37:53;17.30;99.90
4693;DHT22;11710;48.024;16.296;2022-07-10T03:40:20;17.30;99.90
4693;DHT22;11710;48.024;16.296;2022-07-10T03:42:47;17.40;99.90
4693;DHT22;11710;48.024;16.296;2022-07-10T03:45:14;17.40;99.90
4693;DHT22;11710;48.024;16.296;2022-07-10T03:47:41;17.40;99.90
4693;DHT22;11710;48.024;16.296;2022-07-10T03:50:08;17.50;99.90
4693;DHT22;11710;48.024;16.296;2022-07-10T03:52:36;17.50;99.90
4693;DHT22;11710;48.024;16.296;2022-07-10T03:55:05;17.60;99.90
4693;DHT22;11710;48.024;16.296;2022-07-10T03:57:32;17.60;99.90
4693;DHT22;11710;48.024;16.296;2022-07-10T04:00:16;17.60;99.90
4693;DHT22;11710;48.024;16.296;2022-07-10T04:02:43;17.70;99.90
4693;DHT22;11710;48.024;16.296;2022-07-10T04:05:10;17.80;99.90
4693;DHT22;11710;48.024;16.296;2022-07-10T04:07:37;17.80;99.90
4693;DHT22;11710;48.024;16.296;2022-07-10T04:10:06;17.90;99.90
4693;DHT22;11710;48.024;16.296;2022-07-10T04:12:35;17.90;99.90
4693;DHT22;11710;48.024;16.296;2022-07-10T04:15:02;18.00;99.90
4693;DHT22;11710;48.024;16.296;2022-07-10T04:17:29;18.10;99.90
4693;DHT22;11710;48.024;16.296;2022-07-10T04:19:58;18.10;99.90
4693;DHT22;11710;48.024;16.296;2022-07-10T04:22:25;18.20;99.90
4693;DHT22;11710;48.024;16.296;2022-07-10T04:24:52;18.30;99.90
4693;DHT22;11710;48.024;16.296;2022-07-10T04:27:20;18.50;99.90
4693;DHT22;11710;48.024;16.296;2022-07-10T04:29:48;18.60;99.90
4693;DHT22;11710;48.024;16.296;2022-07-10T04:32:15;18.80;99.90
4693;DHT22;11710;48.024;16.296;2022-07-10T04:34:42;19.10;99.90
4693;DHT22;11710;48.024;16.296;2022-07-10T04:37:09;19.20;99.90
4693;DHT22;11710;48.024;16.296;2022-07-10T04:39:36;19.20;99.90
4693;DHT22;11710;48.024;16.296;2022-07-10T04:42:04;19.20;99.90
4693;DHT22;11710;48.024;16.296;2022-07-10T04:44:33;19.10;99.90
4693;DHT22;11710;48.024;16.296;2022-07-10T04:47:00;19.00;99.90
4693;DHT22;11710;48.024;16.296;2022-07-10T04:49:27;19.00;99.90
4693;DHT22;11710;48.024;16.296;2022-07-10T04:51:54;19.00;99.90
4693;DHT22;11710;48.024;16.296;2022-07-10T04:54:21;18.90;99.90
4693;DHT22;11710;48.024;16.296;2022-07-10T04:56:48;18.90;99.90
4693;DHT22;11710;48.024;16.296;2022-07-10T04:59:15;18.90;99.90
4693;DHT22;11710;48.024;16.296;2022-07-10T05:01:44;18.90;99.90
4693;DHT22;11710;48.024;16.296;2022-07-10T05:04:11;19.00;99.90
4693;DHT22;11710;48.024;16.296;2022-07-10T05:06:38;19.10;99.90
4693;DHT22;11710;48.024;16.296;2022-07-10T05:09:05;19.20;99.90
4693;DHT22;11710;48.024;16.296;2022-07-10T05:11:32;19.30;99.90
4693;DHT22;11710;48.024;16.296;2022-07-10T05:13:59;19.40;99.90
4693;DHT22;11710;48.024;16.296;2022-07-10T05:16:25;19.50;99.90
4693;DHT22;11710;48.024;16.296;2022-07-10T05:18:54;19.50;99.90
4693;DHT22;11710;48.024;16.296;2022-07-10T05:21:21;19.60;99.90
4693;DHT22;11710;48.024;16.296;2022-07-10T05:23:48;19.60;99.90
4693;DHT22;11710;48.024;16.296;2022-07-10T05:26:14;19.60;99.90
4693;DHT22;11710;48.024;16.296;2022-07-10T05:28:41;19.70;99.90
4693;DHT22;11710;48.024;16.296;2022-07-10T05:31:08;19.70;99.90
4693;DHT22;11710;48.024;16.296;2022-07-10T05:33:35;19.70;99.90
4693;DHT22;11710;48.024;16.296;2022-07-10T05:36:06;19.80;99.90
4693;DHT22;11710;48.024;16.296;2022-07-10T05:38:33;19.90;99.90
4693;DHT22;11710;48.024;16.296;2022-07-10T05:41:00;19.80;99.90
4693;DHT22;11710;48.024;16.296;2022-07-10T05:43:26;19.80;99.90
4693;DHT22;11710;48.024;16.296;2022-07-10T05:45:53;19.70;99.90
4693;DHT22;11710;48.024;16.296;2022-07-10T05:48:20;19.70;99.90
4693;DHT22;11710;48.024;16.296;2022-07-10T05:50:47;19.50;99.90
4693;DHT22;11710;48.024;16.296;2022-07-10T05:53:15;19.50;99.90
4693;DHT22;11710;48.024;16.296;2022-07-10T05:55:46;19.50;99.90
4693;DHT22;11710;48.024;16.296;2022-07-10T05:58:12;19.50;99.90
4693;DHT22;11710;48.024;16.296;2022-07-10T06:00:40;19.60;99.90
4693;DHT22;11710;48.024;16.296;2022-07-10T06:03:08;19.80;99.90
4693;DHT22;11710;48.024;16.296;2022-07-10T06:05:36;20.20;99.90
4693;DHT22;11710;48.024;16.296;2022-07-10T06:08:04;20.60;99.90
4693;DHT22;11710;48.024;16.296;2022-07-10T06:10:33;20.40;99.90
4693;DHT22;11710;48.024;16.296;2022-07-10T06:12:59;20.50;99.90
4693;DHT22;11710;48.024;16.296;2022-07-10T06:15:26;20.50;99.90
4693;DHT22;11710;48.024;16.296;2022-07-10T06:17:56;20.30;99.90
4693;DHT22;11710;48.024;16.296;2022-07-10T06:20:23;20.20;99.90
4693;DHT22;11710;48.024;16.296;2022-07-10T06:22:50;20.30;99.90
4693;DHT22;11710;48.024;16.296;2022-07-10T06:25:17;20.30;99.90
4693;DHT22;11710;48.024;16.296;2022-07-10T06:27:45;20.20;99.90
4693;DHT22;11710;48.024;16.296;2022-07-10T06:30:12;20.10;99.90
4693;DHT22;11710;48.024;16.296;2022-07-10T06:32:39;20.00;99.90
4693;DHT22;11710;48.024;16.296;2022-07-10T06:35:07;19.90;99.90
4693;DHT22;11710;48.024;16.296;2022-07-10T06:37:35;19.80;99.90
4693;DHT22;11710;48.024;16.296;2022-07-10T06:40:02;19.80;99.90
4693;DHT22;11710;48.024;16.296;2022-07-10T06:42:29;19.70;99.90
4693;DHT22;11710;48.024;16.296;2022-07-10T06:44:57;19.60;99.90
4693;DHT22;11710;48.024;16.296;2022-07-10T06:47:24;19.60;99.90
4693;DHT22;11710;48.024;16.296;2022-07-10T06:50:09;19.60;99.90
4693;DHT22;11710;48.024;16.296;2022-07-10T06:52:36;19.60;99.90
4693;DHT22;11710;48.024;16.296;2022-07-10T06:55:04;19.60;99.90
4693;DHT22;11710;48.024;16.296;2022-07-10T06:57:32;19.70;99.90
4693;DHT22;11710;48.024;16.296;2022-07-10T07:00:00;19.60;99.90
4693;DHT22;11710;48.024;16.296;2022-07-10T07:02:27;19.80;99.90
4693;DHT22;11710;48.024;16.296;2022-07-10T07:04:54;19.90;99.90
4693;DHT22;11710;48.024;16.296;2022-07-10T07:07:21;20.20;99.90
4693;DHT22;11710;48.024;16.296;2022-07-10T07:09:48;20.40;99.90
4693;DHT22;11710;48.024;16.296;2022-07-10T07:12:16;20.60;99.90
4693;DHT22;11710;48.024;16.296;2022-07-10T07:14:43;20.50;99.90
4693;DHT22;11710;48.024;16.296;2022-07-10T07:17:11;20.50;99.90
4693;DHT22;11710;48.024;16.296;2022-07-10T07:19:40;20.50;99.90
4693;DHT22;11710;48.024;16.296;2022-07-10T07:22:25;20.50;99.90
4693;DHT22;11710;48.024;16.296;2022-07-10T07:25:10;20.50;99.90
4693;DHT22;11710;48.024;16.296;2022-07-10T07:27:38;20.40;99.90
4693;DHT22;11710;48.024;16.296;2022-07-10T07:30:06;20.30;99.90
4693;DHT22;11710;48.024;16.296;2022-07-10T07:32:35;20.20;99.90
4693;DHT22;11710;48.024;16.296;2022-07-10T07:35:02;20.20;99.90
4693;DHT22;11710;48.024;16.296;2022-07-10T07:37:37;20.00;99.90
4693;DHT22;11710;48.024;16.296;2022-07-10T07:40:05;19.60;99.90
4693;DHT22;11710;48.024;16.296;2022-07-10T07:42:32;19.50;99.90
4693;DHT22;11710;48.024;16.296;2022-07-10T07:44:59;19.40;99.90
4693;DHT22;11710;48.024;16.296;2022-07-10T07:47:26;19.50;99.90
4693;DHT22;11710;48.024;16.296;2022-07-10T07:49:54;19.60;99.90
4693;DHT22;11710;48.024;16.296;2022-07-10T07:52:22;19.60;99.90
4693;DHT22;11710;48.024;16.296;2022-07-10T07:54:49;19.50;99.90
4693;DHT22;11710;48.024;16.296;2022-07-10T07:57:16;19.50;99.90
4693;DHT22;11710;48.024;16.296;2022-07-10T07:59:44;19.40;99.90
4693;DHT22;11710;48.024;16.296;2022-07-10T08:02:11;19.20;99.90
4693;DHT22;11710;48.024;16.296;2022-07-10T08:04:37;19.10;99.90
4693;DHT22;11710;48.024;16.296;2022-07-10T08:07:06;19.00;99.90
4693;DHT22;11710;48.024;16.296;2022-07-10T08:09:33;18.80;99.90
4693;DHT22;11710;48.024;16.296;2022-07-10T08:12:00;18.60;99.90
4693;DHT22;11710;48.024;16.296;2022-07-10T08:14:27;18.30;99.90
4693;DHT22;11710;48.024;16.296;2022-07-10T08:16:54;18.20;99.90
4693;DHT22;11710;48.024;16.296;2022-07-10T08:19:21;18.00;99.90
4693;DHT22;11710;48.024;16.296;2022-07-10T08:21:48;17.90;99.90
4693;DHT22;11710;48.024;16.296;2022-07-10T08:24:16;17.60;99.90
4693;DHT22;11710;48.024;16.296;2022-07-10T08:26:44;17.20;99.90
4693;DHT22;11710;48.024;16.296;2022-07-10T08:29:11;17.10;99.90
4693;DHT22;11710;48.024;16.296;2022-07-10T08:31:38;16.80;99.90
4693;DHT22;11710;48.024;16.296;2022-07-10T08:34:06;16.80;99.90
4693;DHT22;11710;48.024;16.296;2022-07-10T08:36:32;16.60;99.90
4693;DHT22;11710;48.024;16.296;2022-07-10T08:38:59;16.60;99.90
4693;DHT22;11710;48.024;16.296;2022-07-10T08:41:29;16.60;99.90
4693;DHT22;11710;48.024;16.296;2022-07-10T08:43:58;16.70;99.90
4693;DHT22;11710;48.024;16.296;2022-07-10T08:46:26;16.60;99.90
4693;DHT22;11710;48.024;16.296;2022-07-10T08:48:54;16.70;99.90
4693;DHT22;11710;48.024;16.296;2022-07-10T08:51:36;16.90;99.90
4693;DHT22;11710;48.024;16.296;2022-07-10T08:54:04;17.10;99.90
4693;DHT22;11710;48.024;16.296;2022-07-10T08:56:34;17.20;99.90
4693;DHT22;11710;48.024;16.296;2022-07-10T08:59:03;17.60;99.90
4693;DHT22;11710;48.024;16.296;2022-07-10T09:01:30;18.10;99.90
4693;DHT22;11710;48.024;16.296;2022-07-10T09:03:58;18.50;99.90
4693;DHT22;11710;48.024;16.296;2022-07-10T09:06:25;19.00;99.90
4693;DHT22;11710;48.024;16.296;2022-07-10T09:09:00;19.30;99.90
4693;DHT22;11710;48.024;16.296;2022-07-10T09:11:28;19.70;99.90
4693;DHT22;11710;48.024;16.296;2022-07-10T09:13:58;20.00;99.90
4693;DHT22;11710;48.024;16.296;2022-07-10T09:16:27;20.20;99.90
4693;DHT22;11710;48.024;16.296;2022-07-10T09:18:56;20.20;99.90
4693;DHT22;11710;48.024;16.296;2022-07-10T09:21:23;20.30;99.90
4693;DHT22;11710;48.024;16.296;2022-07-10T09:23:50;20.10;99.90
4693;DHT22;11710;48.024;16.296;2022-07-10T09:26:18;19.90;99.90
4693;DHT22;11710;48.024;16.296;2022-07-10T09:28:44;20.00;99.90
4693;DHT22;11710;48.024;16.296;2022-07-10T09:31:13;20.10;99.90
4693;DHT22;11710;48.024;16.296;2022-07-10T09:33:40;20.10;99.90
4693;DHT22;11710;48.024;16.296;2022-07-10T09:36:08;20.30;99.90
4693;DHT22;11710;48.024;16.296;2022-07-10T09:38:52;20.40;99.90
4693;DHT22;11710;48.024;16.296;2022-07-10T09:41:22;20.30;99.90
4693;DHT22;11710;48.024;16.296;2022-07-10T09:43:50;20.50;99.90
4693;DHT22;11710;48.024;16.296;2022-07-10T09:46:20;20.70;99.90
4693;DHT22;11710;48.024;16.296;2022-07-10T09:48:47;20.70;99.90
4693;DHT22;11710;48.024;16.296;2022-07-10T09:51:14;20.50;99.90
4693;DHT22;11710;48.024;16.296;2022-07-10T09:53:42;20.40;99.90
4693;DHT22;11710;48.024;16.296;2022-07-10T09:56:11;20.20;99.90
4693;DHT22;11710;48.024;16.296;2022-07-10T09:58:38;20.40;99.90
4693;DHT22;11710;48.024;16.296;2022-07-10T10:01:07;20.60;99.90
4693;DHT22;11710;48.024;16.296;2022-07-10T10:03:36;20.80;99.90
4693;DHT22;11710;48.024;16.296;2022-07-10T10:06:10;20.80;99.90
4693;DHT22;11710;48.024;16.296;2022-07-10T10:08:48;20.60;99.90
4693;DHT22;11710;48.024;16.296;2022-07-10T10:11:20;20.60;99.90
4693;DHT22;11710;48.024;16.296;2022-07-10T10:13:48;20.70;99.90
4693;DHT22;11710;48.024;16.296;2022-07-10T10:16:16;21.20;99.90
4693;DHT22;11710;48.024;16.296;2022-07-10T10:18:46;21.30;99.90
4693;DHT22;11710;48.024;16.296;2022-07-10T10:21:32;21.60;99.90
4693;DHT22;11710;48.024;16.296;2022-07-10T10:24:01;21.40;99.90
4693;DHT22;11710;48.024;16.296;2022-07-10T10:26:28;21.20;99.90
4693;DHT22;11710;48.024;16.296;2022-07-10T10:28:57;20.80;99.90
4693;DHT22;11710;48.024;16.296;2022-07-10T10:31:26;20.40;99.90
4693;DHT22;11710;48.024;16.296;2022-07-10T10:33:56;20.30;99.90
4693;DHT22;11710;48.024;16.296;2022-07-10T10:36:43;20.30;99.90
4693;DHT22;11710;48.024;16.296;2022-07-10T10:39:12;20.40;99.90
4693;DHT22;11710;48.024;16.296;2022-07-10T10:41:40;20.40;99.90
4693;DHT22;11710;48.024;16.296;2022-07-10T10:44:34;20.50;99.90
4693;DHT22;11710;48.024;16.296;2022-07-10T10:47:06;20.40;99.90
4693;DHT22;11710;48.024;16.296;2022-07-10T10:49:54;20.30;99.90
4693;DHT22;11710;48.024;16.296;2022-07-10T10:52:24;20.20;99.90
4693;DHT22;11710;48.024;16.296;2022-07-10T10:55:07;20.40;99.90
4693;DHT22;11710;48.024;16.296;2022-07-10T10:57:43;20.30;99.90
4693;DHT22;11710;48.024;16.296;2022-07-10T11:00:29;20.70;99.90
4693;DHT22;11710;48.024;16.296;2022-07-10T11:03:18;21.10;99.90
4693;DHT22;11710;48.024;16.296;2022-07-10T11:05:48;21.00;99.90
4693;DHT22;11710;48.024;16.296;2022-07-10T11:08:36;21.00;99.90
4693;DHT22;11710;48.024;16.296;2022-07-10T11:11:36;21.10;99.90
4693;DHT22;11710;48.024;16.296;2022-07-10T11:14:06;21.10;99.90
4693;DHT22;11710;48.024;16.296;2022-07-10T11:16:33;21.10;99.90
4693;DHT22;11710;48.024;16.296;2022-07-10T11:19:01;21.20;99.90
4693;DHT22;11710;48.024;16.296;2022-07-10T11:21:45;21.40;99.90
4693;DHT22;11710;48.024;16.296;2022-07-10T11:27:15;21.50;99.90
4693;DHT22;11710;48.024;16.296;2022-07-10T11:29:45;21.30;99.90
4693;DHT22;11710;48.024;16.296;2022-07-10T11:32:16;21.20;99.90
4693;DHT22;11710;48.024;16.296;2022-07-10T11:34:43;21.60;99.90
4693;DHT22;11710;48.024;16.296;2022-07-10T11:37:15;21.70;99.90
4693;DHT22;11710;48.024;16.296;2022-07-10T11:39:42;21.70;99.90
4693;DHT22;11710;48.024;16.296;2022-07-10T11:42:09;21.70;99.90
4693;DHT22;11710;48.024;16.296;2022-07-10T11:44:36;21.90;99.90
4693;DHT22;11710;48.024;16.296;2022-07-10T11:47:04;22.10;99.90
4693;DHT22;11710;48.024;16.296;2022-07-10T11:49:33;22.20;99.90
4693;DHT22;11710;48.024;16.296;2022-07-10T11:52:01;22.30;99.90
4693;DHT22;11710;48.024;16.296;2022-07-10T11:54:31;22.30;99.90
4693;DHT22;11710;48.024;16.296;2022-07-10T11:57:05;22.30;99.90
4693;DHT22;11710;48.024;16.296;2022-07-10T11:59:32;22.70;99.90
4693;DHT22;11710;48.024;16.296;2022-07-10T12:01:59;22.80;99.70
4693;DHT22;11710;48.024;16.296;2022-07-10T12:04:29;22.90;99.70
4693;DHT22;11710;48.024;16.296;2022-07-10T12:06:57;23.10;99.40
4693;DHT22;11710;48.024;16.296;2022-07-10T12:09:24;23.10;98.40
4693;DHT22;11710;48.024;16.296;2022-07-10T12:12:03;22.90;97.80
4693;DHT22;11710;48.024;16.296;2022-07-10T12:14:32;22.70;98.10
4693;DHT22;11710;48.024;16.296;2022-07-10T12:16:59;22.40;98.30
4693;DHT22;11710;48.024;16.296;2022-07-10T12:19:27;22.60;98.10
4693;DHT22;11710;48.024;16.296;2022-07-10T12:21:57;22.40;97.70
4693;DHT22;11710;48.024;16.296;2022-07-10T12:24:25;22.40;98.30
4693;DHT22;11710;48.024;16.296;2022-07-10T12:26:52;22.40;97.80
4693;DHT22;11710;48.024;16.296;2022-07-10T12:29:23;22.50;98.10
4693;DHT22;11710;48.024;16.296;2022-07-10T12:31:51;22.60;97.30
4693;DHT22;11710;48.024;16.296;2022-07-10T12:34:18;22.50;97.10
4693;DHT22;11710;48.024;16.296;2022-07-10T12:36:47;22.50;96.20
4693;DHT22;11710;48.024;16.296;2022-07-10T12:39:17;22.40;97.00
4693;DHT22;11710;48.024;16.296;2022-07-10T12:41:57;22.40;95.90
4693;DHT22;11710;48.024;16.296;2022-07-10T12:44:33;22.70;95.70
4693;DHT22;11710;48.024;16.296;2022-07-10T12:47:00;22.90;95.20
4693;DHT22;11710;48.024;16.296;2022-07-10T12:49:27;23.10;95.10
4693;DHT22;11710;48.024;16.296;2022-07-10T12:51:54;23.10;94.20
4693;DHT22;11710;48.024;16.296;2022-07-10T12:54:34;23.20;93.60
4693;DHT22;11710;48.024;16.296;2022-07-10T12:57:03;23.40;92.60
4693;DHT22;11710;48.024;16.296;2022-07-10T12:59:34;23.30;92.60
4693;DHT22;11710;48.024;16.296;2022-07-10T13:02:17;23.20;91.10
4693;DHT22;11710;48.024;16.296;2022-07-10T13:04:55;23.20;91.30
4693;DHT22;11710;48.024;16.296;2022-07-10T13:07:29;23.10;91.20
4693;DHT22;11710;48.024;16.296;2022-07-10T13:09:58;23.00;91.30
4693;DHT22;11710;48.024;16.296;2022-07-10T13:12:26;23.00;91.00
4693;DHT22;11710;48.024;16.296;2022-07-10T13:14:54;23.10;91.20
4693;DHT22;11710;48.024;16.296;2022-07-10T13:17:21;23.40;91.20
4693;DHT22;11710;48.024;16.296;2022-07-10T13:19:49;23.80;91.40
4693;DHT22;11710;48.024;16.296;2022-07-10T13:22:16;24.00;90.60
4693;DHT22;11710;48.024;16.296;2022-07-10T13:24:43;23.90;89.00
4693;DHT22;11710;48.024;16.296;2022-07-10T13:27:10;24.10;87.40
4693;DHT22;11710;48.024;16.296;2022-07-10T13:29:37;24.00;87.30
4693;DHT22;11710;48.024;16.296;2022-07-10T13:32:06;24.00;87.00
4693;DHT22;11710;48.024;16.296;2022-07-10T13:34:33;24.10;87.40
4693;DHT22;11710;48.024;16.296;2022-07-10T13:37:02;24.10;86.80
4693;DHT22;11710;48.024;16.296;2022-07-10T13:39:29;24.20;86.80
4693;DHT22;11710;48.024;16.296;2022-07-10T13:41:56;24.00;85.70
4693;DHT22;11710;48.024;16.296;2022-07-10T13:44:23;24.10;86.20
4693;DHT22;11710;48.024;16.296;2022-07-10T13:46:50;24.10;86.10
4693;DHT22;11710;48.024;16.296;2022-07-10T13:49:18;24.20;85.70
4693;DHT22;11710;48.024;16.296;2022-07-10T13:51:45;24.20;84.30
4693;DHT22;11710;48.024;16.296;2022-07-10T13:54:12;24.10;83.20
4693;DHT22;11710;48.024;16.296;2022-07-10T13:56:39;24.10;83.70
4693;DHT22;11710;48.024;16.296;2022-07-10T13:59:08;24.20;83.30
4693;DHT22;11710;48.024;16.296;2022-07-10T14:01:35;24.20;82.80
4693;DHT22;11710;48.024;16.296;2022-07-10T14:04:04;24.20;83.20
4693;DHT22;11710;48.024;16.296;2022-07-10T14:06:32;24.20;83.40
4693;DHT22;11710;48.024;16.296;2022-07-10T14:08:59;23.90;82.90
4693;DHT22;11710;48.024;16.296;2022-07-10T14:11:27;23.80;83.70
4693;DHT22;11710;48.024;16.296;2022-07-10T14:13:54;23.70;83.10
4693;DHT22;11710;48.024;16.296;2022-07-10T14:16:21;23.40;82.60
4693;DHT22;11710;48.024;16.296;2022-07-10T14:18:48;23.50;81.90
4693;DHT22;11710;48.024;16.296;2022-07-10T14:21:15;23.40;81.40
4693;DHT22;11710;48.024;16.296;2022-07-10T14:23:43;23.30;82.10
4693;DHT22;11710;48.024;16.296;2022-07-10T14:26:11;23.40;81.20
4693;DHT22;11710;48.024;16.296;2022-07-10T14:28:38;23.30;80.90
4693;DHT22;11710;48.024;16.296;2022-07-10T14:31:06;23.00;81.40
4693;DHT22;11710;48.024;16.296;2022-07-10T14:33:34;23.00;81.50
4693;DHT22;11710;48.024;16.296;2022-07-10T14:36:03;23.00;81.90
4693;DHT22;11710;48.024;16.296;2022-07-10T14:38:30;22.90;82.70
4693;DHT22;11710;48.024;16.296;2022-07-10T14:40:59;22.70;83.00
4693;DHT22;11710;48.024;16.296;2022-07-10T14:43:26;22.60;83.60
4693;DHT22;11710;48.024;16.296;2022-07-10T14:45:54;22.60;83.20
4693;DHT22;11710;48.024;16.296;2022-07-10T14:48:20;22.50;84.10
4693;DHT22;11710;48.024;16.296;2022-07-10T14:50:47;22.40;82.60
4693;DHT22;11710;48.024;16.296;2022-07-10T14:53:14;22.40;82.70
4693;DHT22;11710;48.024;16.296;2022-07-10T14:55:41;22.30;81.90
4693;DHT22;11710;48.024;16.296;2022-07-10T14:58:09;22.10;81.30
4693;DHT22;11710;48.024;16.296;2022-07-10T15:00:36;22.10;81.80
4693;DHT22;11710;48.024;16.296;2022-07-10T15:03:03;22.10;80.80
4693;DHT22;11710;48.024;16.296;2022-07-10T15:05:30;22.10;80.50
4693;DHT22;11710;48.024;16.296;2022-07-10T15:07:59;22.10;80.40
4693;DHT22;11710;48.024;16.296;2022-07-10T15:10:25;22.20;79.90
4693;DHT22;11710;48.024;16.296;2022-07-10T15:12:52;22.40;79.80
4693;DHT22;11710;48.024;16.296;2022-07-10T15:15:21;22.50;79.10
4693;DHT22;11710;48.024;16.296;2022-07-10T15:17:48;22.60;79.20
4693;DHT22;11710;48.024;16.296;2022-07-10T15:20:15;22.60;78.40
4693;DHT22;11710;48.024;16.296;2022-07-10T15:22:44;22.60;79.00
4693;DHT22;11710;48.024;16.296;2022-07-10T15:25:11;22.60;78.30
4693;DHT22;11710;48.024;16.296;2022-07-10T15:27:38;22.50;75.90
4693;DHT22;11710;48.024;16.296;2022-07-10T15:30:08;22.30;76.00
4693;DHT22;11710;48.024;16.296;2022-07-10T15:32:38;22.20;76.20
4693;DHT22;11710;48.024;16.296;2022-07-10T15:35:06;22.00;76.30
4693;DHT22;11710;48.024;16.296;2022-07-10T15:37:33;22.00;75.50
4693;DHT22;11710;48.024;16.296;2022-07-10T15:40:00;21.90;75.40
4693;DHT22;11710;48.024;16.296;2022-07-10T15:42:27;21.90;75.80